sensor_id;sensor_type;location;lat;lon;timestamp;temperature;humidity
19017;DHT22;9641;51.494;6.670;2023-09-19T00:00:27;17.20;31.20
19017;DHT22;9641;51.494;6.670;2023-09-19T00:02:57;17.10;45.20
19017;DHT22;9641;51.494;6.670;2023-09-19T00:05:25;17.10;67.30
19017;DHT22;9641;51.494;6.670;2023-09-19T00:08:02;17.10;37.10
19017;DHT22;9641;51.494;6.670;2023-09-19T00:10:31;17.10;46.70
19017;DHT22;9641;51.494;6.670;2023-09-19T00:13:04;17.00;28.30
19017;DHT22;9641;51.494;6.670;2023-09-19T00:15:37;17.00;39.00
19017;DHT22;9641;51.494;6.670;2023-09-19T00:18:04;17.00;50.10
19017;DHT22;9641;51.494;6.670;2023-09-19T00:20:35;16.90;61.20
19017;DHT22;9641;51.494;6.670;2023-09-19T00:23:05;16.90;68.00
19017;DHT22;9641;51.494;6.670;2023-09-19T00:25:36;16.90;71.60
19017;DHT22;9641;51.494;6.670;2023-09-19T00:28:08;16.90;52.10
19017;DHT22;9641;51.494;6.670;2023-09-19T00:30:35;16.90;50.20
19017;DHT22;9641;51.494;6.670;2023-09-19T00:33:04;16.90;58.30
19017;DHT22;9641;51.494;6.670;2023-09-19T00:35:34;16.90;41.80
19017;DHT22;9641;51.494;6.670;2023-09-19T00:38:05;16.90;45.50
19017;DHT22;9641;51.494;6.670;2023-09-19T00:40:36;16.90;42.80
19017;DHT22;9641;51.494;6.670;2023-09-19T00:43:05;16.90;37.30
19017;DHT22;9641;51.494;6.670;2023-09-19T00:45:33;16.80;81.00
19017;DHT22;9641;51.494;6.670;2023-09-19T00:48:05;16.70;87.80
19017;DHT22;9641;51.494;6.670;2023-09-19T00:50:37;16.70;80.80
19017;DHT22;9641;51.494;6.670;2023-09-19T00:53:08;16.70;58.40
19017;DHT22;9641;51.494;6.670;2023-09-19T00:55:36;16.60;67.50
19017;DHT22;9641;51.494;6.670;2023-09-19T00:58:07;16.60;86.50
19017;DHT22;9641;51.494;6.670;2023-09-19T01:00:38;16.60;77.30
19017;DHT22;9641;51.494;6.670;2023-09-19T01:03:10;16.50;93.40
19017;DHT22;9641;51.494;6.670;2023-09-19T01:05:40;16.50;92.50
19017;DHT22;9641;51.494;6.670;2023-09-19T01:08:08;16.50;94.90
19017;DHT22;9641;51.494;6.670;2023-09-19T01:10:39;16.50;94.60
19017;DHT22;9641;51.494;6.670;2023-09-19T01:13:13;16.50;92.30
19017;DHT22;9641;51.494;6.670;2023-09-19T01:15:54;16.40;98.20
19017;DHT22;9641;51.494;6.670;2023-09-19T01:18:30;16.40;99.90
19017;DHT22;9641;51.494;6.670;2023-09-19T01:21:07;16.30;99.90
19017;DHT22;9641;51.494;6.670;2023-09-19T01:23:57;16.30;99.90
19017;DHT22;9641;51.494;6.670;2023-09-19T01:26:52;16.30;99.90
19017;DHT22;9641;51.494;6.670;2023-09-19T01:29:34;16.30;97.60
19017;DHT22;9641;51.494;6.670;2023-09-19T01:32:08;16.30;98.00
19017;DHT22;9641;51.494;6.670;2023-09-19T01:34:46;16.20;99.90
19017;DHT22;9641;51.494;6.670;2023-09-19T01:37:16;16.20;99.90
19017;DHT22;9641;51.494;6.670;2023-09-19T01:39:46;16.20;94.40
19017;DHT22;9641;51.494;6.670;2023-09-19T01:42:24;16.20;98.30
19017;DHT22;9641;51.494;6.670;2023-09-19T01:45:02;16.20;94.70
19017;DHT22;9641;51.494;6.670;2023-09-19T01:47:34;16.20;93.30
19017;DHT22;9641;51.494;6.670;2023-09-19T01:50:11;16.20;93.10
19017;DHT22;9641;51.494;6.670;2023-09-19T01:52:46;16.10;93.50
19017;DHT22;9641;51.494;6.670;2023-09-19T01:55:15;16.00;91.90
19017;DHT22;9641;51.494;6.670;2023-09-19T01:57:49;16.00;86.70
19017;DHT22;9641;51.494;6.670;2023-09-19T02:00:20;16.00;80.00
19017;DHT22;9641;51.494;6.670;2023-09-19T02:02:51;16.00;89.80
19017;DHT22;9641;51.494;6.670;2023-09-19T02:05:25;16.00;86.40
19017;DHT22;9641;51.494;6.670;2023-09-19T02:07:53;16.00;76.50
19017;DHT22;9641;51.494;6.670;2023-09-19T02:10:21;16.00;48.60
19017;DHT22;9641;51.494;6.670;2023-09-19T02:12:50;16.00;71.50
19017;DHT22;9641;51.494;6.670;2023-09-19T02:15:17;15.90;87.70
19017;DHT22;9641;51.494;6.670;2023-09-19T02:17:44;15.90;69.40
19017;DHT22;9641;51.494;6.670;2023-09-19T02:20:13;15.80;64.00
19017;DHT22;9641;51.494;6.670;2023-09-19T02:22:41;15.80;51.10
19017;DHT22;9641;51.494;6.670;2023-09-19T02:25:08;15.80;55.80
19017;DHT22;9641;51.494;6.670;2023-09-19T02:27:41;15.80;62.80
19017;DHT22;9641;51.494;6.670;2023-09-19T02:30:13;15.80;45.50
19017;DHT22;9641;51.494;6.670;2023-09-19T02:32:41;15.80;59.80
19017;DHT22;9641;51.494;6.670;2023-09-19T02:35:08;15.80;59.50
19017;DHT22;9641;51.494;6.670;2023-09-19T02:37:38;15.80;46.10
19017;DHT22;9641;51.494;6.670;2023-09-19T02:40:06;15.70;49.70
19017;DHT22;9641;51.494;6.670;2023-09-19T02:42:45;15.70;44.90
19017;DHT22;9641;51.494;6.670;2023-09-19T02:45:25;15.70;53.00
19017;DHT22;9641;51.494;6.670;2023-09-19T02:47:52;15.80;17.60
19017;DHT22;9641;51.494;6.670;2023-09-19T02:50:19;15.80;9.50
19017;DHT22;9641;51.494;6.670;2023-09-19T02:52:48;15.80;27.00
19017;DHT22;9641;51.494;6.670;2023-09-19T02:55:16;15.80;1.00
19017;DHT22;9641;51.494;6.670;2023-09-19T02:57:48;15.80;1.00
19017;DHT22;9641;51.494;6.670;2023-09-19T03:00:17;15.80;1.00
19017;DHT22;9641;51.494;6.670;2023-09-19T03:02:47;15.80;1.00
19017;DHT22;9641;51.494;6.670;2023-09-19T03:05:15;15.80;1.00
19017;DHT22;9641;51.494;6.670;2023-09-19T03:07:42;15.70;1.00
19017;DHT22;9641;51.494;6.670;2023-09-19T03:10:14;15.70;1.00
19017;DHT22;9641;51.494;6.670;2023-09-19T03:12:41;15.70;1.00
19017;DHT22;9641;51.494;6.670;2023-09-19T03:15:09;15.70;1.00
19017;DHT22;9641;51.494;6.670;2023-09-19T03:17:37;15.70;1.00
19017;DHT22;9641;51.494;6.670;2023-09-19T03:20:05;15.60;1.00
19017;DHT22;9641;51.494;6.670;2023-09-19T03:22:35;15.60;1.00
19017;DHT22;9641;51.494;6.670;2023-09-19T03:25:05;15.60;1.00
19017;DHT22;9641;51.494;6.670;2023-09-19T03:27:37;15.60;1.00
19017;DHT22;9641;51.494;6.670;2023-09-19T03:30:06;15.50;1.00
19017;DHT22;9641;51.494;6.670;2023-09-19T03:32:35;15.50;1.00
19017;DHT22;9641;51.494;6.670;2023-09-19T03:35:02;15.50;1.00
19017;DHT22;9641;51.494;6.670;2023-09-19T03:37:31;15.50;1.00
19017;DHT22;9641;51.494;6.670;2023-09-19T03:39:59;15.50;1.00
19017;DHT22;9641;51.494;6.670;2023-09-19T03:42:31;15.40;1.00
19017;DHT22;9641;51.494;6.670;2023-09-19T03:44:59;15.40;1.00
19017;DHT22;9641;51.494;6.670;2023-09-19T03:47:31;15.50;1.00
19017;DHT22;9641;51.494;6.670;2023-09-19T03:50:00;15.40;1.00
19017;DHT22;9641;51.494;6.670;2023-09-19T03:52:27;15.50;1.00
19017;DHT22;9641;51.494;6.670;2023-09-19T03:54:54;15.40;1.00
19017;DHT22;9641;51.494;6.670;2023-09-19T03:57:21;15.40;1.00
19017;DHT22;9641;51.494;6.670;2023-09-19T03:59:50;15.30;6.90
19017;DHT22;9641;51.494;6.670;2023-09-19T04:02:20;15.40;9.80
19017;DHT22;9641;51.494;6.670;2023-09-19T04:04:50;15.30;11.60
19017;DHT22;9641;51.494;6.670;2023-09-19T04:07:17;15.30;15.90
19017;DHT22;9641;51.494;6.670;2023-09-19T04:09:45;15.40;26.50
19017;DHT22;9641;51.494;6.670;2023-09-19T04:12:14;15.30;40.00
19017;DHT22;9641;51.494;6.670;2023-09-19T04:14:42;15.30;28.80
19017;DHT22;9641;51.494;6.670;2023-09-19T04:17:09;15.30;29.20
19017;DHT22;9641;51.494;6.670;2023-09-19T04:19:38;15.30;30.60
19017;DHT22;9641;51.494;6.670;2023-09-19T04:22:06;15.30;49.00
19017;DHT22;9641;51.494;6.670;2023-09-19T04:24:33;15.30;49.30
19017;DHT22;9641;51.494;6.670;2023-09-19T04:27:00;15.30;62.80
19017;DHT22;9641;51.494;6.670;2023-09-19T04:29:28;15.30;68.50
19017;DHT22;9641;51.494;6.670;2023-09-19T04:31:55;15.30;86.60
19017;DHT22;9641;51.494;6.670;2023-09-19T04:34:23;15.20;91.90
19017;DHT22;9641;51.494;6.670;2023-09-19T04:36:52;15.20;94.40
19017;DHT22;9641;51.494;6.670;2023-09-19T04:39:19;15.20;92.60
19017;DHT22;9641;51.494;6.670;2023-09-19T04:41:46;15.20;98.30
19017;DHT22;9641;51.494;6.670;2023-09-19T04:44:14;15.20;99.20
19017;DHT22;9641;51.494;6.670;2023-09-19T04:46:41;15.20;99.90
19017;DHT22;9641;51.494;6.670;2023-09-19T04:49:08;15.20;98.80
19017;DHT22;9641;51.494;6.670;2023-09-19T04:51:35;15.30;96.20
19017;DHT22;9641;51.494;6.670;2023-09-19T04:54:03;15.30;92.90
19017;DHT22;9641;51.494;6.670;2023-09-19T04:56:31;15.30;99.90
19017;DHT22;9641;51.494;6.670;2023-09-19T04:58:58;15.30;93.70
19017;DHT22;9641;51.494;6.670;2023-09-19T05:01:25;15.20;99.90
19017;DHT22;9641;51.494;6.670;2023-09-19T05:03:53;15.20;99.90
19017;DHT22;9641;51.494;6.670;2023-09-19T05:06:20;15.30;97.60
19017;DHT22;9641;51.494;6.670;2023-09-19T05:08:47;15.30;92.90
19017;DHT22;9641;51.494;6.670;2023-09-19T05:11:18;15.30;97.60
19017;DHT22;9641;51.494;6.670;2023-09-19T05:13:47;15.20;99.90
19017;DHT22;9641;51.494;6.670;2023-09-19T05:16:15;15.20;99.90
19017;DHT22;9641;51.494;6.670;2023-09-19T05:18:42;15.20;99.90
19017;DHT22;9641;51.494;6.670;2023-09-19T05:21:09;15.30;97.70
19017;DHT22;9641;51.494;6.670;2023-09-19T05:23:36;15.30;94.40
19017;DHT22;9641;51.494;6.670;2023-09-19T05:26:03;15.30;99.90
19017;DHT22;9641;51.494;6.670;2023-09-19T05:28:32;15.30;98.60
19017;DHT22;9641;51.494;6.670;2023-09-19T05:31:00;15.30;99.90
19017;DHT22;9641;51.494;6.670;2023-09-19T05:33:28;15.30;98.20
19017;DHT22;9641;51.494;6.670;2023-09-19T05:35:57;15.40;95.20
19017;DHT22;9641;51.494;6.670;2023-09-19T05:38:24;15.40;84.00
19017;DHT22;9641;51.494;6.670;2023-09-19T05:40:52;15.40;92.40
19017;DHT22;9641;51.494;6.670;2023-09-19T05:43:19;15.40;93.40
19017;DHT22;9641;51.494;6.670;2023-09-19T05:45:48;15.40;91.20
19017;DHT22;9641;51.494;6.670;2023-09-19T05:48:17;15.40;88.00
19017;DHT22;9641;51.494;6.670;2023-09-19T05:50:46;15.50;70.70
19017;DHT22;9641;51.494;6.670;2023-09-19T05:53:14;15.60;65.40
19017;DHT22;9641;51.494;6.670;2023-09-19T05:55:42;15.60;57.50
19017;DHT22;9641;51.494;6.670;2023-09-19T05:58:09;15.60;56.90
19017;DHT22;9641;51.494;6.670;2023-09-19T06:00:39;15.60;64.00
19017;DHT22;9641;51.494;6.670;2023-09-19T06:03:09;15.70;61.90
19017;DHT22;9641;51.494;6.670;2023-09-19T06:05:37;15.60;59.10
19017;DHT22;9641;51.494;6.670;2023-09-19T06:08:07;15.60;59.80
19017;DHT22;9641;51.494;6.670;2023-09-19T06:10:35;15.70;53.10
19017;DHT22;9641;51.494;6.670;2023-09-19T06:13:02;15.70;32.70
19017;DHT22;9641;51.494;6.670;2023-09-19T06:15:31;15.70;40.60
19017;DHT22;9641;51.494;6.670;2023-09-19T06:17:59;15.70;45.00
19017;DHT22;9641;51.494;6.670;2023-09-19T06:20:29;15.80;40.10
19017;DHT22;9641;51.494;6.670;2023-09-19T06:22:57;15.80;37.30
19017;DHT22;9641;51.494;6.670;2023-09-19T06:25:24;15.80;36.00
19017;DHT22;9641;51.494;6.670;2023-09-19T06:27:52;15.80;47.60
19017;DHT22;9641;51.494;6.670;2023-09-19T06:30:21;15.80;31.00
19017;DHT22;9641;51.494;6.670;2023-09-19T06:32:48;15.90;22.30
19017;DHT22;9641;51.494;6.670;2023-09-19T06:35:16;15.80;42.80
19017;DHT22;9641;51.494;6.670;2023-09-19T06:37:48;15.80;50.40
19017;DHT22;9641;51.494;6.670;2023-09-19T06:40:16;15.80;73.80
19017;DHT22;9641;51.494;6.670;2023-09-19T06:42:45;15.70;53.60
19017;DHT22;9641;51.494;6.670;2023-09-19T06:45:14;15.70;50.00
19017;DHT22;9641;51.494;6.670;2023-09-19T06:47:45;15.70;50.60
19017;DHT22;9641;51.494;6.670;2023-09-19T06:50:17;15.80;69.80
19017;DHT22;9641;51.494;6.670;2023-09-19T06:52:47;15.80;67.70
19017;DHT22;9641;51.494;6.670;2023-09-19T06:55:15;15.80;49.40
19017;DHT22;9641;51.494;6.670;2023-09-19T06:57:43;15.90;60.80
19017;DHT22;9641;51.494;6.670;2023-09-19T07:00:11;16.00;50.80
19017;DHT22;9641;51.494;6.670;2023-09-19T07:02:44;15.90;68.20
19017;DHT22;9641;51.494;6.670;2023-09-19T07:05:11;16.00;63.10
19017;DHT22;9641;51.494;6.670;2023-09-19T07:07:39;16.00;52.80
19017;DHT22;9641;51.494;6.670;2023-09-19T07:10:08;16.00;72.10
19017;DHT22;9641;51.494;6.670;2023-09-19T07:12:36;15.90;68.30
19017;DHT22;9641;51.494;6.670;2023-09-19T07:15:04;16.00;79.00
19017;DHT22;9641;51.494;6.670;2023-09-19T07:17:31;16.00;89.20
19017;DHT22;9641;51.494;6.670;2023-09-19T07:19:59;16.00;58.70
19017;DHT22;9641;51.494;6.670;2023-09-19T07:22:26;16.00;80.90
19017;DHT22;9641;51.494;6.670;2023-09-19T07:24:53;16.00;76.30
19017;DHT22;9641;51.494;6.670;2023-09-19T07:27:21;16.00;83.10
19017;DHT22;9641;51.494;6.670;2023-09-19T07:29:49;16.10;91.40
19017;DHT22;9641;51.494;6.670;2023-09-19T07:32:16;16.20;89.40
19017;DHT22;9641;51.494;6.670;2023-09-19T07:34:43;16.20;82.10
19017;DHT22;9641;51.494;6.670;2023-09-19T07:37:10;16.20;74.90
19017;DHT22;9641;51.494;6.670;2023-09-19T07:39:38;16.20;59.30
19017;DHT22;9641;51.494;6.670;2023-09-19T07:42:07;16.20;74.20
19017;DHT22;9641;51.494;6.670;2023-09-19T07:44:36;16.20;64.10
19017;DHT22;9641;51.494;6.670;2023-09-19T07:47:04;16.20;58.60
19017;DHT22;9641;51.494;6.670;2023-09-19T07:49:46;16.20;65.40
19017;DHT22;9641;51.494;6.670;2023-09-19T07:52:13;16.20;80.20
19017;DHT22;9641;51.494;6.670;2023-09-19T07:54:41;16.30;68.30
19017;DHT22;9641;51.494;6.670;2023-09-19T07:57:09;16.30;76.30
19017;DHT22;9641;51.494;6.670;2023-09-19T07:59:38;16.40;47.10
19017;DHT22;9641;51.494;6.670;2023-09-19T08:02:08;16.30;65.60
19017;DHT22;9641;51.494;6.670;2023-09-19T08:04:41;16.30;53.80
19017;DHT22;9641;51.494;6.670;2023-09-19T08:07:08;16.30;53.70
19017;DHT22;9641;51.494;6.670;2023-09-19T08:09:36;16.40;54.10
19017;DHT22;9641;51.494;6.670;2023-09-19T08:12:07;16.40;75.40
19017;DHT22;9641;51.494;6.670;2023-09-19T08:14:40;16.40;82.10
19017;DHT22;9641;51.494;6.670;2023-09-19T08:17:08;16.40;74.00
19017;DHT22;9641;51.494;6.670;2023-09-19T08:19:35;16.50;53.70
19017;DHT22;9641;51.494;6.670;2023-09-19T08:22:07;16.50;62.50
19017;DHT22;9641;51.494;6.670;2023-09-19T08:24:36;16.60;70.10
19017;DHT22;9641;51.494;6.670;2023-09-19T08:27:06;16.70;41.10
19017;DHT22;9641;51.494;6.670;2023-09-19T08:29:35;16.70;31.90
19017;DHT22;9641;51.494;6.670;2023-09-19T08:32:04;16.70;41.20
19017;DHT22;9641;51.494;6.670;2023-09-19T08:34:31;16.70;37.20
19017;DHT22;9641;51.494;6.670;2023-09-19T08:37:00;16.80;39.20
19017;DHT22;9641;51.494;6.670;2023-09-19T08:39:27;16.90;25.30
19017;DHT22;9641;51.494;6.670;2023-09-19T08:42:00;16.90;10.80
19017;DHT22;9641;51.494;6.670;2023-09-19T08:44:28;17.00;8.50
19017;DHT22;9641;51.494;6.670;2023-09-19T08:47:07;17.10;1.50
19017;DHT22;9641;51.494;6.670;2023-09-19T08:49:48;17.20;24.20
19017;DHT22;9641;51.494;6.670;2023-09-19T08:52:25;17.20;1.00
19017;DHT22;9641;51.494;6.670;2023-09-19T08:54:59;17.30;3.00
19017;DHT22;9641;51.494;6.670;2023-09-19T08:57:29;17.30;1.00
19017;DHT22;9641;51.494;6.670;2023-09-19T08:59:57;17.30;1.00
19017;DHT22;9641;51.494;6.670;2023-09-19T09:02:26;17.30;1.00
19017;DHT22;9641;51.494;6.670;2023-09-19T09:04:57;17.30;1.00
19017;DHT22;9641;51.494;6.670;2023-09-19T09:07:25;17.30;1.00
19017;DHT22;9641;51.494;6.670;2023-09-19T09:09:54;17.40;1.00
19017;DHT22;9641;51.494;6.670;2023-09-19T09:12:21;17.40;1.00
19017;DHT22;9641;51.494;6.670;2023-09-19T09:14:49;17.40;1.00
19017;DHT22;9641;51.494;6.670;2023-09-19T09:17:21;17.50;1.00
19017;DHT22;9641;51.494;6.670;2023-09-19T09:19:52;17.60;1.00
19017;DHT22;9641;51.494;6.670;2023-09-19T09:22:20;17.60;1.00
19017;DHT22;9641;51.494;6.670;2023-09-19T09:24:51;17.70;1.00
19017;DHT22;9641;51.494;6.670;2023-09-19T09:27:20;17.70;1.00
19017;DHT22;9641;51.494;6.670;2023-09-19T09:29:51;17.80;1.00
19017;DHT22;9641;51.494;6.670;2023-09-19T09:32:22;17.80;1.00
19017;DHT22;9641;51.494;6.670;2023-09-19T09:34:51;17.90;1.00
19017;DHT22;9641;51.494;6.670;2023-09-19T09:37:20;18.00;1.00
19017;DHT22;9641;51.494;6.670;2023-09-19T09:39:52;18.00;1.00
19017;DHT22;9641;51.494;6.670;2023-09-19T09:42:35;18.00;1.00
19017;DHT22;9641;51.494;6.670;2023-09-19T09:45:18;18.00;78.30
19017;DHT22;9641;51.494;6.670;2023-09-19T09:47:54;18.10;1.00
19017;DHT22;9641;51.494;6.670;2023-09-19T09:50:28;18.20;99.90
19017;DHT22;9641;51.494;6.670;2023-09-19T09:53:22;18.10;1.00
19017;DHT22;9641;51.494;6.670;2023-09-19T09:55:58;18.10;1.00
19017;DHT22;9641;51.494;6.670;2023-09-19T09:58:26;18.20;1.00
19017;DHT22;9641;51.494;6.670;2023-09-19T10:00:56;18.30;99.90
19017;DHT22;9641;51.494;6.670;2023-09-19T10:03:34;18.50;99.90
19017;DHT22;9641;51.494;6.670;2023-09-19T10:06:10;18.70;1.00
19017;DHT22;9641;51.494;6.670;2023-09-19T10:09:01;18.80;99.90
19017;DHT22;9641;51.494;6.670;2023-09-19T10:11:40;18.80;99.90
19017;DHT22;9641;51.494;6.670;2023-09-19T10:14:09;18.80;1.00
19017;DHT22;9641;51.494;6.670;2023-09-19T10:16:40;18.80;1.00
19017;DHT22;9641;51.494;6.670;2023-09-19T10:19:10;18.90;99.90
19017;DHT22;9641;51.494;6.670;2023-09-19T10:21:39;19.10;1.00
19017;DHT22;9641;51.494;6.670;2023-09-19T10:24:10;19.30;1.00
19017;DHT22;9641;51.494;6.670;2023-09-19T10:26:39;19.40;1.00
19017;DHT22;9641;51.494;6.670;2023-09-19T10:29:13;19.40;99.90
19017;DHT22;9641;51.494;6.670;2023-09-19T10:31:43;19.30;1.00
19017;DHT22;9641;51.494;6.670;2023-09-19T10:34:14;19.40;1.00
19017;DHT22;9641;51.494;6.670;2023-09-19T10:36:45;19.40;98.10
19017;DHT22;9641;51.494;6.670;2023-09-19T10:39:16;19.60;99.90
19017;DHT22;9641;51.494;6.670;2023-09-19T10:41:49;19.70;1.00
19017;DHT22;9641;51.494;6.670;2023-09-19T10:44:23;19.80;1.00
19017;DHT22;9641;51.494;6.670;2023-09-19T10:46:52;19.90;99.90
19017;DHT22;9641;51.494;6.670;2023-09-19T10:49:20;19.70;1.00
19017;DHT22;9641;51.494;6.670;2023-09-19T10:52:22;19.60;99.90
19017;DHT22;9641;51.494;6.670;2023-09-19T10:54:53;19.40;1.00
19017;DHT22;9641;51.494;6.670;2023-09-19T10:57:23;19.50;19.20
19017;DHT22;9641;51.494;6.670;2023-09-19T11:00:04;19.60;99.90
19017;DHT22;9641;51.494;6.670;2023-09-19T11:03:18;19.40;1.00
19017;DHT22;9641;51.494;6.670;2023-09-19T11:06:04;19.60;99.90
19017;DHT22;9641;51.494;6.670;2023-09-19T11:08:55;19.80;1.00
19017;DHT22;9641;51.494;6.670;2023-09-19T11:11:45;19.90;1.00
19017;DHT22;9641;51.494;6.670;2023-09-19T11:14:37;19.90;99.90
19017;DHT22;9641;51.494;6.670;2023-09-19T11:20:24;19.90;98.60
19017;DHT22;9641;51.494;6.670;2023-09-19T11:23:20;19.90;99.90
19017;DHT22;9641;51.494;6.670;2023-09-19T11:25:51;19.90;98.10
19017;DHT22;9641;51.494;6.670;2023-09-19T11:28:36;20.10;1.00
19017;DHT22;9641;51.494;6.670;2023-09-19T11:34:46;20.90;1.00
19017;DHT22;9641;51.494;6.670;2023-09-19T11:40:45;20.80;1.00
19017;DHT22;9641;51.494;6.670;2023-09-19T11:43:31;20.70;1.00
19017;DHT22;9641;51.494;6.670;2023-09-19T11:46:07;20.70;1.00
19017;DHT22;9641;51.494;6.670;2023-09-19T11:48:41;20.80;1.00
19017;DHT22;9641;51.494;6.670;2023-09-19T11:51:18;21.00;1.00
19017;DHT22;9641;51.494;6.670;2023-09-19T11:53:50;21.20;1.00
19017;DHT22;9641;51.494;6.670;2023-09-19T11:56:19;21.30;1.00
19017;DHT22;9641;51.494;6.670;2023-09-19T11:58:49;21.40;1.00
19017;DHT22;9641;51.494;6.670;2023-09-19T12:01:26;21.60;1.00
19017;DHT22;9641;51.494;6.670;2023-09-19T12:03:56;21.70;1.00
19017;DHT22;9641;51.494;6.670;2023-09-19T12:06:26;21.80;1.00
19017;DHT22;9641;51.494;6.670;2023-09-19T12:08:57;22.00;1.00
19017;DHT22;9641;51.494;6.670;2023-09-19T12:11:28;22.10;1.00
19017;DHT22;9641;51.494;6.670;2023-09-19T12:14:02;22.20;1.00
19017;DHT22;9641;51.494;6.670;2023-09-19T12:16:31;22.30;1.00
19017;DHT22;9641;51.494;6.670;2023-09-19T12:19:17;22.60;1.00
19017;DHT22;9641;51.494;6.670;2023-09-19T12:21:54;22.70;1.00
19017;DHT22;9641;51.494;6.670;2023-09-19T12:24:27;22.80;1.00
19017;DHT22;9641;51.494;6.670;2023-09-19T12:27:00;22.90;1.00
19017;DHT22;9641;51.494;6.670;2023-09-19T12:29:42;22.70;1.00
19017;DHT22;9641;51.494;6.670;2023-09-19T12:32:13;22.60;1.00
19017;DHT22;9641;51.494;6.670;2023-09-19T12:34:45;22.70;1.00
19017;DHT22;9641;51.494;6.670;2023-09-19T12:37:21;23.00;1.00
19017;DHT22;9641;51.494;6.670;2023-09-19T12:39:53;23.30;1.00
19017;DHT22;9641;51.494;6.670;2023-09-19T12:42:41;23.40;1.00
19017;DHT22;9641;51.494;6.670;2023-09-19T12:45:10;23.30;99.90
19017;DHT22;9641;51.494;6.670;2023-09-19T12:51:04;23.00;1.00
19017;DHT22;9641;51.494;6.670;2023-09-19T12:53:34;22.90;1.00
19017;DHT22;9641;51.494;6.670;2023-09-19T12:56:10;22.80;99.90
19017;DHT22;9641;51.494;6.670;2023-09-19T12:58:51;22.50;99.90
19017;DHT22;9641;51.494;6.670;2023-09-19T13:01:21;22.20;99.90
19017;DHT22;9641;51.494;6.670;2023-09-19T13:04:11;22.10;99.90
19017;DHT22;9641;51.494;6.670;2023-09-19T13:06:53;22.00;99.90
19017;DHT22;9641;51.494;6.670;2023-09-19T13:09:27;22.20;1.00
19017;DHT22;9641;51.494;6.670;2023-09-19T13:12:01;22.20;99.90
19017;DHT22;9641;51.494;6.670;2023-09-19T13:14:30;22.60;1.00
19017;DHT22;9641;51.494;6.670;2023-09-19T13:17:05;23.00;1.00
19017;DHT22;9641;51.494;6.670;2023-09-19T13:19:46;23.10;1.00
19017;DHT22;9641;51.494;6.670;2023-09-19T13:22:39;23.30;99.90
19017;DHT22;9641;51.494;6.670;2023-09-19T13:25:15;23.00;99.90
19017;DHT22;9641;51.494;6.670;2023-09-19T13:27:44;22.60;99.90
19017;DHT22;9641;51.494;6.670;2023-09-19T13:30:14;22.40;1.00
19017;DHT22;9641;51.494;6.670;2023-09-19T13:32:42;22.20;99.90
19017;DHT22;9641;51.494;6.670;2023-09-19T13:35:09;21.90;1.00
19017;DHT22;9641;51.494;6.670;2023-09-19T13:37:40;21.70;1.00
19017;DHT22;9641;51.494;6.670;2023-09-19T13:40:09;21.50;1.00
19017;DHT22;9641;51.494;6.670;2023-09-19T13:42:36;21.50;1.00
19017;DHT22;9641;51.494;6.670;2023-09-19T13:45:04;21.50;1.00
19017;DHT22;9641;51.494;6.670;2023-09-19T13:47:32;21.50;1.00
19017;DHT22;9641;51.494;6.670;2023-09-19T13:50:01;21.70;1.00
19017;DHT22;9641;51.494;6.670;2023-09-19T13:52:39;21.60;1.00
19017;DHT22;9641;51.494;6.670;2023-09-19T13:55:07;21.50;1.00
19017;DHT22;9641;51.494;6.670;2023-09-19T13:57:35;21.50;1.00
19017;DHT22;9641;51.494;6.670;2023-09-19T14:00:02;21.40;1.00
19017;DHT22;9641;51.494;6.670;2023-09-19T14:02:38;21.10;1.00
19017;DHT22;9641;51.494;6.670;2023-09-19T14:05:06;20.90;1.00
19017;DHT22;9641;51.494;6.670;2023-09-19T14:07:33;20.70;1.00
19017;DHT22;9641;51.494;6.670;2023-09-19T14:10:06;20.50;1.00
19017;DHT22;9641;51.494;6.670;2023-09-19T14:12:34;20.40;1.00
19017;DHT22;9641;51.494;6.670;2023-09-19T14:15:01;20.30;1.00
19017;DHT22;9641;51.494;6.670;2023-09-19T14:17:34;20.30;1.00
19017;DHT22;9641;51.494;6.670;2023-09-19T14:20:02;20.30;1.00
19017;DHT22;9641;51.494;6.670;2023-09-19T14:22:32;20.30;31.40
19017;DHT22;9641;51.494;6.670;2023-09-19T14:25:00;20.30;1.00
19017;DHT22;9641;51.494;6.670;2023-09-19T14:27:33;20.40;1.00
19017;DHT22;9641;51.494;6.670;2023-09-19T14:30:03;20.50;1.00
19017;DHT22;9641;51.494;6.670;2023-09-19T14:32:31;20.60;1.00
19017;DHT22;9641;51.494;6.670;2023-09-19T14:35:01;20.60;1.00
19017;DHT22;9641;51.494;6.670;2023-09-19T14:37:28;20.50;1.00
19017;DHT22;9641;51.494;6.670;2023-09-19T14:39:56;20.40;1.00
19017;DHT22;9641;51.494;6.670;2023-09-19T14:42:24;20.30;1.00
19017;DHT22;9641;51.494;6.670;2023-09-19T14:44:57;20.30;1.00
19017;DHT22;9641;51.494;6.670;2023-09-19T14:47:24;20.20;1.00
19017;DHT22;9641;51.494;6.670;2023-09-19T14:49:53;20.30;1.00
19017;DHT22;9641;51.494;6.670;2023-09-19T14:52:21;20.30;99.90
19017;DHT22;9641;51.494;6.670;2023-09-19T14:54:48;20.20;1.00
19017;DHT22;9641;51.494;6.670;2023-09-19T14:57:15;20.10;1.00
19017;DHT22;9641;51.494;6.670;2023-09-19T14:59:42;20.00;1.00
19017;DHT22;9641;51.494;6.670;2023-09-19T15:02:11;20.00;1.00
19017;DHT22;9641;51.494;6.670;2023-09-19T15:04:40;19.90;1.00
19017;DHT22;9641;51.494;6.670;2023-09-19T15:07:12;19.90;99.90
19017;DHT22;9641;51.494;6.670;2023-09-19T15:09:41;20.00;99.90
19017;DHT22;9641;51.494;6.670;2023-09-19T15:12:11;20.00;42.80
19017;DHT22;9641;51.494;6.670;2023-09-19T15:14:40;20.10;1.00
19017;DHT22;9641;51.494;6.670;2023-09-19T15:17:08;20.10;1.00
19017;DHT22;9641;51.494;6.670;2023-09-19T15:19:39;20.10;1.00
19017;DHT22;9641;51.494;6.670;2023-09-19T15:22:06;20.10;1.00
19017;DHT22;9641;51.494;6.670;2023-09-19T15:24:33;20.10;1.00
19017;DHT22;9641;51.494;6.670;2023-09-19T15:27:00;20.10;1.00
19017;DHT22;9641;51.494;6.670;2023-09-19T15:29:28;20.30;99.90
19017;DHT22;9641;51.494;6.670;2023-09-19T15:31:55;20.60;1.00
19017;DHT22;9641;51.494;6.670;2023-09-19T15:34:28;20.80;1.00
19017;DHT22;9641;51.494;6.670;2023-09-19T15:36:57;21.10;1.00
19017;DHT22;9641;51.494;6.670;2023-09-19T15:39:24;21.60;1.00
19017;DHT22;9641;51.494;6.670;2023-09-19T15:41:51;22.50;1.00
19017;DHT22;9641;51.494;6.670;2023-09-19T15:44:18;22.80;1.00
19017;DHT22;9641;51.494;6.670;2023-09-19T15:46:46;22.90;1.00
19017;DHT22;9641;51.494;6.670;2023-09-19T15:49:13;22.90;1.00
19017;DHT22;9641;51.494;6.670;2023-09-19T15:51:40;22.50;1.00
19017;DHT22;9641;51.494;6.670;2023-09-19T15:54:11;22.10;1.00
19017;DHT22;9641;51.494;6.670;2023-09-19T15:56:40;21.60;1.00
19017;DHT22;9641;51.494;6.670;2023-09-19T15:59:08;21.30;1.00
19017;DHT22;9641;51.494;6.670;2023-09-19T16:01:38;21.00;1.00
19017;DHT22;9641;51.494;6.670;2023-09-19T16:04:06;20.80;1.00
19017;DHT22;9641;51.494;6.670;2023-09-19T16:06:35;20.70;1.00
19017;DHT22;9641;51.494;6.670;2023-09-19T16:09:04;20.50;1.00
19017;DHT22;9641;51.494;6.670;2023-09-19T16:11:34;20.40;1.00
19017;DHT22;9641;51.494;6.670;2023-09-19T16:14:03;20.50;1.00
19017;DHT22;9641;51.494;6.670;2023-09-19T16:16:31;20.50;1.00
19017;DHT22;9641;51.494;6.670;2023-09-19T16:19:02;20.50;1.00
19017;DHT22;9641;51.494;6.670;2023-09-19T16:21:39;20.40;1.00
19017;DHT22;9641;51.494;6.670;2023-09-19T16:24:08;20.40;1.00
19017;DHT22;9641;51.494;6.670;2023-09-19T16:26:38;20.40;1.00
19017;DHT22;9641;51.494;6.670;2023-09-19T16:29:05;20.40;1.00